createdAt,value
2018-05-17T00:01:18.677Z,64.40
2018-05-17T00:03:46.774Z,64.60
2018-05-17T00:06:15.223Z,65.60
2018-05-17T00:08:43.352Z,66.10
2018-05-17T00:11:11.816Z,65.50
2018-05-17T00:13:39.905Z,65.00
2018-05-17T00:16:08.374Z,65.40
2018-05-17T00:18:36.849Z,64.10
2018-05-17T00:21:04.938Z,66.30
2018-05-17T00:23:33.433Z,65.60
2018-05-17T00:26:01.538Z,67.10
2018-05-17T00:28:30.753Z,64.90
2018-05-17T00:30:59.270Z,65.80
2018-05-17T00:33:28.290Z,66.20
2018-05-17T00:35:56.749Z,65.70
2018-05-17T00:38:25.949Z,65.20
2018-05-17T00:40:54.408Z,66.40
2018-05-17T00:43:22.513Z,64.60
2018-05-17T00:45:51.001Z,64.80
2018-05-17T00:48:19.086Z,64.80
2018-05-17T00:50:47.546Z,66.80
2018-05-17T00:53:27.798Z,64.90
2018-05-17T00:55:56.253Z,65.90
2018-05-17T00:58:24.366Z,66.30
2018-05-17T01:00:52.860Z,65.00
2018-05-17T01:03:20.954Z,66.60
2018-05-17T01:05:48.666Z,79.70
2018-05-17T01:08:17.498Z,65.20
2018-05-17T01:10:45.967Z,65.30
2018-05-17T01:13:14.057Z,64.40
2018-05-17T01:15:42.520Z,66.20
2018-05-17T01:18:10.987Z,65.40
2018-05-17T01:20:39.077Z,67.40
2018-05-17T01:23:08.283Z,66.00
2018-05-17T01:25:36.737Z,65.70
2018-05-17T01:28:04.832Z,65.80
2018-05-17T01:30:33.294Z,66.30
2018-05-17T01:33:02.524Z,65.70
2018-05-17T01:35:30.978Z,65.70
2018-05-17T01:38:10.910Z,65.40
2018-05-17T01:40:38.626Z,80.10
2018-05-17T01:43:06.725Z,65.20
2018-05-17T01:45:35.949Z,65.10
2018-05-17T01:48:04.418Z,65.40
2018-05-17T01:50:32.889Z,65.50
2018-05-17T01:53:02.395Z,65.90
2018-05-17T01:55:30.085Z,76.40
2018-05-17T01:57:58.547Z,66.10
2018-05-17T02:00:27.040Z,67.60
2018-05-17T02:02:55.134Z,68.10
2018-05-17T02:05:23.611Z,67.30
2018-05-17T02:07:51.725Z,68.50
2018-05-17T02:10:20.225Z,68.30
2018-05-17T02:12:48.313Z,67.70
2018-05-17T02:15:16.777Z,68.60
2018-05-17T02:17:44.881Z,68.10
2018-05-17T02:20:14.106Z,68.30
2018-05-17T02:22:42.559Z,68.70
2018-05-17T02:25:11.765Z,68.50
2018-05-17T02:27:40.230Z,69.00
2018-05-17T02:30:09.442Z,68.90
2018-05-17T02:32:38.654Z,69.50
2018-05-17T02:37:36.174Z,70.50
2018-05-17T02:40:05.013Z,70.70
2018-05-17T02:42:33.842Z,69.50
2018-05-17T02:45:02.343Z,70.00
2018-05-17T02:47:30.441Z,69.60
2018-05-17T02:52:28.208Z,70.70
2018-05-17T02:54:56.298Z,70.40
2018-05-17T03:02:22.544Z,74.40
2018-05-17T03:04:50.640Z,74.10
2018-05-17T03:07:18.746Z,71.50
2018-05-17T03:09:47.205Z,70.30
2018-05-17T03:12:16.410Z,71.30
2018-05-17T03:14:45.612Z,72.00
2018-05-17T03:17:14.076Z,71.10
2018-05-17T03:19:43.316Z,71.70
2018-05-17T03:22:11.787Z,70.50
2018-05-17T03:24:39.888Z,70.50
2018-05-17T03:29:36.656Z,86.30
2018-05-17T03:32:05.859Z,71.00
2018-05-17T03:34:35.063Z,71.20
2018-05-17T03:39:31.805Z,85.20
2018-05-17T03:41:59.927Z,70.10
2018-05-17T03:44:28.391Z,72.20
2018-05-17T03:46:56.488Z,70.60
2018-05-17T03:49:24.953Z,70.80
2018-05-17T03:51:54.165Z,70.80
2018-05-17T03:54:23.369Z,70.40
2018-05-17T03:56:51.823Z,70.90
2018-05-17T03:59:21.081Z,71.20
2018-05-17T04:02:02.273Z,70.90
2018-05-17T04:04:42.606Z,72.50
2018-05-17T04:07:11.073Z,69.70
2018-05-17T04:09:39.555Z,72.10
2018-05-17T04:12:07.666Z,71.90
2018-05-17T04:14:36.150Z,72.70
2018-05-17T04:17:04.259Z,73.70
2018-05-17T04:19:32.770Z,73.20
2018-05-17T04:22:01.092Z,75.10
2018-05-17T04:24:29.192Z,78.10
2018-05-17T04:26:57.313Z,74.60
2018-05-17T04:29:25.797Z,76.40
2018-05-17T04:31:53.891Z,76.50
2018-05-17T04:34:22.361Z,77.30
2018-05-17T04:36:50.460Z,78.40
2018-05-17T04:39:18.984Z,76.20
2018-05-17T04:41:47.112Z,78.70
2018-05-17T04:44:15.586Z,80.70
2018-05-17T04:46:43.692Z,78.70
2018-05-17T04:49:12.169Z,77.60
2018-05-17T04:51:40.257Z,79.10
2018-05-17T04:54:08.723Z,79.40
2018-05-17T04:56:37.204Z,78.90
2018-05-17T04:59:05.298Z,81.30
2018-05-17T05:01:33.765Z,78.40
2018-05-17T05:04:02.029Z,78.70
2018-05-17T05:06:30.251Z,82.10
2018-05-17T05:08:58.341Z,79.30
2018-05-17T05:11:26.806Z,78.30
2018-05-17T05:13:54.910Z,78.90
2018-05-17T05:16:23.372Z,80.00
2018-05-17T05:18:52.617Z,79.50
2018-05-17T05:21:21.832Z,80.60
2018-05-17T05:23:50.300Z,79.10
2018-05-17T05:26:18.397Z,80.90
2018-05-17T05:28:46.852Z,78.30
2018-05-17T05:31:15.307Z,79.90
2018-05-17T05:33:43.398Z,80.00
2018-05-17T05:36:12.600Z,80.90
2018-05-17T05:38:41.066Z,78.30
2018-05-17T05:41:10.279Z,79.20
2018-05-17T05:43:39.499Z,79.90
2018-05-17T05:46:07.959Z,79.10
2018-05-17T05:48:36.441Z,80.40
2018-05-17T05:51:04.545Z,84.10
2018-05-17T05:53:33.858Z,81.00
2018-05-17T05:56:01.964Z,78.60
2018-05-17T05:58:31.272Z,78.00
2018-05-17T06:00:59.740Z,77.90
2018-05-17T06:03:28.314Z,77.90
2018-05-17T06:05:56.429Z,82.60
2018-05-17T06:08:24.539Z,78.60
2018-05-17T06:10:53.752Z,79.50
2018-05-17T06:13:22.217Z,79.40
2018-05-17T06:15:51.419Z,80.60
2018-05-17T06:18:19.895Z,79.20
2018-05-17T06:20:47.986Z,77.90
2018-05-17T06:23:16.532Z,78.00
2018-05-17T06:25:44.650Z,77.00
2018-05-17T06:28:13.889Z,78.70
2018-05-17T06:35:39.747Z,83.40
2018-05-17T06:38:08.216Z,75.60
2018-05-17T06:40:36.308Z,74.40
2018-05-17T06:43:04.769Z,75.10
2018-05-17T06:45:34.008Z,74.50
2018-05-17T06:48:03.728Z,73.40
2018-05-17T06:50:32.591Z,74.20
2018-05-17T06:53:01.057Z,72.00
2018-05-17T06:55:29.169Z,69.80
2018-05-17T06:57:58.381Z,69.30
2018-05-17T07:00:26.862Z,69.40
2018-05-17T07:02:56.077Z,69.90
2018-05-17T07:05:24.546Z,69.00
2018-05-17T07:07:52.633Z,69.10
2018-05-17T07:10:21.113Z,69.30
2018-05-17T07:12:49.205Z,69.20
2018-05-17T07:15:18.691Z,70.50
2018-05-17T07:17:46.807Z,68.80
2018-05-17T07:22:43.609Z,78.00
2018-05-17T07:25:11.762Z,69.40
2018-05-17T07:27:40.330Z,68.00
2018-05-17T07:30:08.413Z,66.90
2018-05-17T07:32:37.613Z,67.30
2018-05-17T07:37:35.153Z,68.20
2018-05-17T07:40:04.044Z,68.20
2018-05-17T07:42:32.889Z,66.90
2018-05-17T07:45:02.097Z,66.30
2018-05-17T07:49:59.614Z,66.80
2018-05-17T07:52:28.094Z,66.50
2018-05-17T07:54:57.285Z,68.10
2018-05-17T07:57:25.743Z,65.50
2018-05-17T07:59:53.837Z,66.20
2018-05-17T08:02:22.287Z,65.40
2018-05-17T08:04:51.485Z,66.20
2018-05-17T08:07:20.684Z,65.20
2018-05-17T08:09:48.376Z,74.90
2018-05-17T08:14:45.880Z,64.10
2018-05-17T08:17:13.972Z,62.90
2018-05-17T08:19:43.193Z,62.40
2018-05-17T08:22:11.661Z,62.20
2018-05-17T08:24:40.871Z,62.50
2018-05-17T08:27:09.358Z,62.60
2018-05-17T08:29:37.455Z,62.30
2018-05-17T08:32:05.991Z,62.00
2018-05-17T08:34:34.087Z,61.00
2018-05-17T08:37:03.298Z,61.70
2018-05-17T08:39:32.573Z,60.50
2018-05-17T08:42:01.045Z,60.20
2018-05-17T08:44:29.149Z,61.20
2018-05-17T08:46:57.636Z,60.20
2018-05-17T08:49:25.721Z,60.80
2018-05-17T08:51:54.172Z,60.00
2018-05-17T08:54:23.495Z,60.20
2018-05-17T08:56:52.646Z,59.00
2018-05-17T08:59:21.106Z,59.30
2018-05-17T09:01:50.317Z,58.50
2018-05-17T09:04:19.520Z,59.20
2018-05-17T09:06:47.233Z,70.00
2018-05-17T09:09:15.347Z,59.70
2018-05-17T09:11:43.432Z,59.60
2018-05-17T09:14:11.900Z,59.30
2018-05-17T09:16:40.381Z,59.40
2018-05-17T09:19:08.476Z,60.60
2018-05-17T09:21:36.945Z,61.50
2018-05-17T09:24:05.489Z,60.20
2018-05-17T09:26:33.227Z,65.50
2018-05-17T09:29:01.689Z,61.10
2018-05-17T09:31:29.787Z,62.80
2018-05-17T09:33:58.252Z,59.60
2018-05-17T09:36:27.474Z,58.90
2018-05-17T09:38:56.681Z,59.20
2018-05-17T09:41:24.481Z,68.30
2018-05-17T09:43:53.322Z,60.80
2018-05-17T09:46:21.804Z,62.10
2018-05-17T09:48:49.909Z,63.50
2018-05-17T09:51:19.364Z,63.30
2018-05-17T09:53:47.462Z,62.80
2018-05-17T09:56:15.925Z,63.00
2018-05-17T09:58:45.131Z,62.80
2018-05-17T10:03:42.660Z,61.10
2018-05-17T10:06:11.137Z,60.70
2018-05-17T10:08:39.239Z,60.40
2018-05-17T10:11:07.748Z,58.20
2018-05-17T10:13:35.844Z,59.90
2018-05-17T10:16:04.463Z,60.30
2018-05-17T10:18:32.623Z,61.10
2018-05-17T10:21:00.723Z,60.30
2018-05-17T10:23:29.177Z,59.80
2018-05-17T10:25:58.374Z,59.00
2018-05-17T10:28:26.837Z,59.30
2018-05-17T10:30:54.949Z,58.00
2018-05-17T10:33:23.402Z,57.10
2018-05-17T10:35:51.499Z,57.50
2018-05-17T10:38:19.963Z,57.50
2018-05-17T10:40:49.169Z,56.70
2018-05-17T10:45:46.693Z,54.90
2018-05-17T10:48:15.168Z,55.10
2018-05-17T10:50:43.630Z,55.60
2018-05-17T10:53:11.749Z,54.30
2018-05-17T10:55:40.955Z,53.40
2018-05-17T10:58:10.161Z,52.60
2018-05-17T11:00:38.616Z,52.60
2018-05-17T11:03:07.097Z,52.90
2018-05-17T11:05:35.190Z,53.10
2018-05-17T11:08:04.484Z,53.70
2018-05-17T11:10:32.656Z,50.10
2018-05-17T11:13:01.120Z,50.40
2018-05-17T11:15:30.319Z,50.80
2018-05-17T11:20:27.821Z,51.60
2018-05-17T11:22:56.295Z,50.30
2018-05-17T11:25:24.763Z,51.70
2018-05-17T11:27:52.842Z,51.40
2018-05-17T11:30:22.064Z,51.70
2018-05-17T11:32:50.525Z,52.00
2018-05-17T11:35:18.648Z,49.20
2018-05-17T11:37:47.126Z,48.70
2018-05-17T11:40:15.224Z,48.70
2018-05-17T11:42:43.677Z,48.60
2018-05-17T11:45:12.875Z,48.30
2018-05-17T11:52:39.804Z,46.80
2018-05-17T11:55:09.009Z,47.40
2018-05-17T11:57:37.474Z,48.80
2018-05-17T12:00:05.442Z,53.50
2018-05-17T12:02:34.065Z,47.20
2018-05-17T12:05:03.231Z,44.90
2018-05-17T12:07:31.758Z,45.30
2018-05-17T12:09:59.843Z,46.20
2018-05-17T12:12:28.389Z,45.70
2018-05-17T12:14:56.488Z,45.60
2018-05-17T12:17:24.945Z,45.10
2018-05-17T12:19:53.034Z,45.10
2018-05-17T12:24:50.585Z,43.50
2018-05-17T12:27:19.059Z,44.10
2018-05-17T12:29:47.176Z,44.70
2018-05-17T12:32:15.642Z,43.40
2018-05-17T12:34:43.750Z,46.20
2018-05-17T12:37:12.324Z,47.60
2018-05-17T12:39:40.379Z,44.20
2018-05-17T12:42:08.191Z,52.70
2018-05-17T12:44:37.032Z,47.40
2018-05-17T12:47:06.252Z,46.70
2018-05-17T12:49:34.722Z,44.60
2018-05-17T12:52:02.857Z,45.90
2018-05-17T12:54:31.336Z,47.00
2018-05-17T12:56:59.430Z,47.40
2018-05-17T12:59:27.890Z,47.20
2018-05-17T13:01:57.109Z,46.60
2018-05-17T13:04:26.154Z,46.40
2018-05-17T13:06:54.690Z,47.40
2018-05-17T13:11:52.565Z,45.80
2018-05-17T13:14:20.666Z,44.30
2018-05-17T13:16:49.864Z,45.60
2018-05-17T13:21:46.612Z,51.00
2018-05-17T13:24:14.698Z,42.30
2018-05-17T13:26:43.169Z,45.30
2018-05-17T13:29:12.368Z,43.30
2018-05-17T13:31:41.623Z,45.70
2018-05-17T13:34:10.179Z,43.60
2018-05-17T13:36:38.284Z,46.50
2018-05-17T13:39:07.492Z,45.70
2018-05-17T13:41:35.970Z,46.00
2018-05-17T13:44:03.665Z,52.00
2018-05-17T13:46:31.361Z,51.40
2018-05-17T13:48:59.837Z,47.40
2018-05-17T13:51:27.927Z,48.40
2018-05-17T13:53:56.428Z,48.00
2018-05-17T13:56:24.940Z,46.90
2018-05-17T13:58:53.019Z,47.70
2018-05-17T14:01:22.230Z,49.10
2018-05-17T14:03:51.428Z,48.90
2018-05-17T14:06:19.880Z,47.20
2018-05-17T14:08:49.087Z,44.20
2018-05-17T14:13:47.012Z,46.00
2018-05-17T14:16:15.151Z,43.80
2018-05-17T14:18:43.255Z,43.00
2018-05-17T14:21:11.732Z,43.10
2018-05-17T14:23:39.834Z,45.50
2018-05-17T14:26:09.137Z,45.20
2018-05-17T14:28:37.615Z,44.20
2018-05-17T14:31:05.722Z,45.60
2018-05-17T14:33:34.196Z,45.60
2018-05-17T14:36:02.389Z,49.20
2018-05-17T14:40:59.096Z,49.40
2018-05-17T14:43:27.199Z,47.10
2018-05-17T14:45:55.665Z,47.10
2018-05-17T14:48:23.781Z,47.40
2018-05-17T14:50:52.244Z,45.90
2018-05-17T14:53:21.457Z,47.40
2018-05-17T14:55:50.678Z,46.20
2018-05-17T14:58:19.166Z,48.10
2018-05-17T15:00:47.257Z,49.50
2018-05-17T15:03:15.734Z,49.30
2018-05-17T15:05:44.946Z,47.60
2018-05-17T15:08:14.173Z,47.90
2018-05-17T15:10:42.646Z,48.50
2018-05-17T15:13:10.360Z,51.60
2018-05-17T15:15:38.089Z,49.90
2018-05-17T15:20:35.813Z,46.00
2018-05-17T15:23:05.027Z,47.40
2018-05-17T15:25:33.121Z,47.30
2018-05-17T15:28:01.593Z,48.70
2018-05-17T15:32:58.352Z,48.10
2018-05-17T15:35:26.443Z,47.10
2018-05-17T15:37:54.934Z,47.90
2018-05-17T15:40:23.055Z,46.30
2018-05-17T15:47:49.981Z,42.00
2018-05-17T15:50:18.442Z,46.00
2018-05-17T15:52:46.535Z,45.70
2018-05-17T15:55:15.010Z,45.50
2018-05-17T15:57:43.130Z,46.50
2018-05-17T16:00:11.603Z,46.80
2018-05-17T16:02:39.717Z,47.50
2018-05-17T16:05:08.197Z,47.50
2018-05-17T16:07:36.408Z,49.90
2018-05-17T16:10:05.633Z,49.20
2018-05-17T16:12:34.138Z,49.40
2018-05-17T16:15:02.444Z,50.20
2018-05-17T16:17:30.745Z,49.70
2018-05-17T16:19:58.881Z,49.40
2018-05-17T16:22:28.091Z,49.40
2018-05-17T16:24:56.572Z,48.50
2018-05-17T16:27:24.758Z,49.00
2018-05-17T16:29:53.168Z,49.30
2018-05-17T16:32:22.385Z,47.90
2018-05-17T16:34:50.876Z,48.70
2018-05-17T16:37:18.985Z,48.40
2018-05-17T16:39:48.232Z,47.30
2018-05-17T16:42:16.720Z,46.00
2018-05-17T16:44:44.806Z,46.70
2018-05-17T16:47:13.268Z,46.90
2018-05-17T16:49:41.378Z,45.20
2018-05-17T16:52:10.021Z,46.30
2018-05-17T16:54:38.108Z,46.90
2018-05-17T16:57:06.214Z,44.80
2018-05-17T16:59:34.688Z,46.00
2018-05-17T17:02:03.967Z,43.50
2018-05-17T17:04:32.507Z,45.20
2018-05-17T17:07:00.603Z,46.70
2018-05-17T17:09:28.730Z,45.90
2018-05-17T17:11:57.199Z,45.60
2018-05-17T17:14:25.289Z,46.30
2018-05-17T17:16:53.760Z,46.20
2018-05-17T17:19:22.228Z,46.10
2018-05-17T17:21:50.339Z,46.90
2018-05-17T17:24:18.525Z,46.80
2018-05-17T17:29:16.057Z,46.80
2018-05-17T17:31:44.528Z,46.70
2018-05-17T17:34:13.887Z,46.60
2018-05-17T17:36:41.960Z,46.80
2018-05-17T17:39:10.467Z,47.00
2018-05-17T17:41:38.567Z,46.90
2018-05-17T17:44:07.045Z,46.00
2018-05-17T17:46:35.133Z,45.80
2018-05-17T17:49:03.598Z,46.10
2018-05-17T17:51:32.817Z,47.40
2018-05-17T17:54:02.016Z,47.50
2018-05-17T17:56:43.283Z,54.10
2018-05-17T17:59:11.016Z,56.70
2018-05-17T18:01:39.211Z,47.70
2018-05-17T18:04:07.546Z,47.90
2018-05-17T18:06:35.770Z,48.90
2018-05-17T18:09:03.868Z,48.60
2018-05-17T18:11:32.340Z,49.00
2018-05-17T18:14:00.429Z,49.60
2018-05-17T18:16:28.905Z,51.30
2018-05-17T18:21:25.652Z,60.80
2018-05-17T18:23:55.104Z,51.60
2018-05-17T18:26:23.220Z,54.60
2018-05-17T18:28:51.353Z,52.50
2018-05-17T18:31:19.817Z,51.80
2018-05-17T18:33:48.009Z,51.60
2018-05-17T18:36:16.812Z,52.00
2018-05-17T18:38:44.541Z,60.70
2018-05-17T18:41:13.020Z,52.20
2018-05-17T18:43:41.110Z,52.40
2018-05-17T18:46:10.266Z,52.60
2018-05-17T18:48:38.391Z,52.40
2018-05-17T18:53:35.177Z,60.60
2018-05-17T18:56:03.654Z,54.10
2018-05-17T18:58:31.789Z,54.40
2018-05-17T19:05:58.345Z,56.40
2018-05-17T19:10:55.506Z,60.40
2018-05-17T19:13:23.601Z,57.20
2018-05-17T19:18:20.721Z,62.60
2018-05-17T19:20:48.422Z,68.60
2018-05-17T19:23:17.234Z,60.80
2018-05-17T19:25:46.162Z,60.40
2018-05-17T19:28:15.311Z,62.00
2018-05-17T19:30:43.796Z,64.10
2018-05-17T19:33:13.007Z,63.40
2018-05-17T19:35:43.052Z,64.00
2018-05-17T19:38:10.822Z,79.50
2018-05-17T19:40:38.911Z,63.70
2018-05-17T19:43:08.120Z,64.00
2018-05-17T19:45:36.592Z,65.20
2018-05-17T19:48:05.060Z,65.20
2018-05-17T19:50:33.182Z,68.20
2018-05-17T19:53:01.762Z,80.50
2018-05-17T19:55:30.600Z,64.30
2018-05-17T19:57:59.057Z,63.70
2018-05-17T20:00:28.276Z,64.80
2018-05-17T20:02:57.543Z,66.60
2018-05-17T20:05:26.023Z,66.60
2018-05-17T20:07:54.138Z,66.80
2018-05-17T20:10:23.052Z,67.40
2018-05-17T20:12:50.839Z,80.90
2018-05-17T20:15:20.054Z,66.90
2018-05-17T20:20:17.610Z,67.00
2018-05-17T20:22:46.074Z,67.20
2018-05-17T20:25:14.180Z,65.30
2018-05-17T20:27:42.660Z,68.00
2018-05-17T20:30:11.885Z,67.60
2018-05-17T20:32:41.110Z,66.00
2018-05-17T20:40:08.095Z,67.00
2018-05-17T20:42:36.276Z,65.60
2018-05-17T20:45:04.770Z,68.50
2018-05-17T20:47:32.888Z,65.70
2018-05-17T20:52:30.043Z,73.80
2018-05-17T20:54:58.875Z,66.10
2018-05-17T20:57:26.597Z,80.50
2018-05-17T20:59:55.432Z,65.50
2018-05-17T21:02:23.917Z,66.60
2018-05-17T21:04:51.999Z,66.80
2018-05-17T21:07:21.225Z,69.80
2018-05-17T21:09:49.678Z,67.80
2018-05-17T21:12:19.030Z,68.90
2018-05-17T21:14:48.242Z,69.50
2018-05-17T21:17:17.437Z,67.70
2018-05-17T21:19:45.904Z,68.30
2018-05-17T21:22:14.004Z,68.30
2018-05-17T21:24:42.464Z,69.40
2018-05-17T21:27:11.701Z,70.30
2018-05-17T21:29:40.922Z,69.90
2018-05-17T21:32:09.863Z,69.90
2018-05-17T21:39:36.431Z,70.00
2018-05-17T21:42:04.535Z,73.10
2018-05-17T21:44:32.993Z,71.70
2018-05-17T21:47:01.114Z,70.80
2018-05-17T21:49:29.592Z,70.00
2018-05-17T21:51:57.749Z,71.00
2018-05-17T21:54:25.850Z,72.50
2018-05-17T21:56:54.309Z,73.00
2018-05-17T21:59:23.558Z,73.10
2018-05-17T22:01:52.038Z,74.30
2018-05-17T22:04:20.140Z,72.60
2018-05-17T22:06:48.646Z,72.80
2018-05-17T22:09:16.760Z,72.90
2018-05-17T22:11:45.969Z,72.20
2018-05-17T22:14:14.455Z,75.80
2018-05-17T22:16:42.557Z,71.50
2018-05-17T22:19:11.035Z,70.20
2018-05-17T22:21:39.128Z,70.00
2018-05-17T22:24:07.603Z,70.10
2018-05-17T22:26:35.699Z,69.40
2018-05-17T22:29:04.209Z,69.40
2018-05-17T22:31:32.680Z,69.70
2018-05-17T22:34:00.792Z,72.90
2018-05-17T22:36:28.907Z,70.30
2018-05-17T22:38:57.367Z,69.60
2018-05-17T22:41:26.576Z,69.60
2018-05-17T22:43:55.047Z,68.90
2018-05-17T22:46:23.165Z,69.80
2018-05-17T22:48:51.669Z,69.90
2018-05-17T22:51:19.767Z,70.20
2018-05-17T22:53:48.971Z,69.50
2018-05-17T22:56:29.276Z,69.80
2018-05-17T22:58:57.820Z,69.60
2018-05-17T23:01:26.245Z,69.90
2018-05-17T23:03:54.345Z,71.40
2018-05-17T23:06:22.801Z,69.10
2018-05-17T23:08:50.900Z,69.80
2018-05-17T23:11:19.364Z,68.90
2018-05-17T23:13:47.483Z,70.00
2018-05-17T23:16:15.949Z,69.10
2018-05-17T23:18:44.957Z,69.40
2018-05-17T23:21:13.425Z,71.10
2018-05-17T23:23:43.369Z,69.50
2018-05-17T23:28:42.192Z,69.70
2018-05-17T23:31:10.650Z,69.10
2018-05-17T23:33:38.749Z,70.00
2018-05-17T23:36:07.196Z,69.90
2018-05-17T23:38:36.413Z,70.20
2018-05-17T23:41:16.558Z,69.80
2018-05-17T23:43:45.011Z,70.70
2018-05-17T23:48:42.161Z,70.50
2018-05-17T23:51:10.993Z,71.90
2018-05-17T23:53:39.461Z,72.60
2018-05-17T23:56:07.543Z,72.00
2018-05-17T23:58:36.763Z,71.10
